createdAt,value
2023-04-09T00:00:30.993Z,3.50
2023-04-09T00:03:03.313Z,3.30
2023-04-09T00:05:34.623Z,3.50
2023-04-09T00:08:05.742Z,3.30
2023-04-09T00:10:37.228Z,3.50
2023-04-09T00:13:08.037Z,3.60
2023-04-09T00:15:39.176Z,3.70
2023-04-09T00:18:10.947Z,3.60
2023-04-09T00:20:42.261Z,3.10
2023-04-09T00:23:13.400Z,3.60
2023-04-09T00:25:44.377Z,3.30
2023-04-09T00:28:16.131Z,3.30
2023-04-09T00:30:48.121Z,3.10
2023-04-09T00:33:19.251Z,3.40
2023-04-09T00:35:50.706Z,3.50
2023-04-09T00:38:22.134Z,3.30
2023-04-09T00:40:53.825Z,3.30
2023-04-09T00:43:25.031Z,3.00
2023-04-09T00:45:56.175Z,3.00
2023-04-09T00:48:28.445Z,3.00
2023-04-09T00:50:59.794Z,2.90
2023-04-09T00:53:31.117Z,2.70
2023-04-09T00:56:02.712Z,3.10
2023-04-09T00:58:33.885Z,3.00
2023-04-09T01:01:04.995Z,3.10
2023-04-09T01:03:36.792Z,2.90
2023-04-09T01:06:13.400Z,2.80
2023-04-09T01:08:52.833Z,3.40
2023-04-09T01:11:47.900Z,3.00
2023-04-09T01:14:25.787Z,2.90
2023-04-09T01:17:05.993Z,2.90
2023-04-09T01:19:50.248Z,2.80
2023-04-09T01:22:51.191Z,2.80
2023-04-09T01:25:42.171Z,2.90
2023-04-09T01:28:21.171Z,2.60
2023-04-09T01:31:00.055Z,3.10
2023-04-09T01:33:32.806Z,2.80
2023-04-09T01:36:06.081Z,2.60
2023-04-09T01:38:38.886Z,2.60
2023-04-09T01:41:11.903Z,2.60
2023-04-09T01:43:43.775Z,2.60
2023-04-09T01:46:17.297Z,2.60
2023-04-09T01:48:50.004Z,2.90
2023-04-09T01:51:21.994Z,2.70
2023-04-09T01:53:53.347Z,2.90
2023-04-09T01:56:24.488Z,3.00
2023-04-09T01:58:56.268Z,2.90
2023-04-09T02:01:39.760Z,2.80
2023-04-09T02:04:17.910Z,2.70
2023-04-09T02:06:55.046Z,2.90
2023-04-09T02:09:28.862Z,2.40
2023-04-09T02:12:03.871Z,2.80
2023-04-09T02:14:36.592Z,2.50
2023-04-09T02:17:09.675Z,2.60
2023-04-09T02:19:45.122Z,2.70
2023-04-09T02:22:18.467Z,2.50
2023-04-09T02:24:50.673Z,2.60
2023-04-09T02:27:22.054Z,2.40
2023-04-09T02:29:53.328Z,2.80
2023-04-09T02:32:24.612Z,2.70
2023-04-09T02:34:56.071Z,2.60
2023-04-09T02:37:27.647Z,2.70
2023-04-09T02:39:58.974Z,2.50
2023-04-09T02:42:30.217Z,2.40
2023-04-09T02:45:01.411Z,2.60
2023-04-09T02:47:35.384Z,2.40
2023-04-09T02:50:08.199Z,2.40
2023-04-09T02:52:40.108Z,2.50
2023-04-09T02:55:11.957Z,2.30
2023-04-09T02:57:43.186Z,2.30
2023-04-09T03:00:17.075Z,2.40
2023-04-09T03:02:48.547Z,2.40
2023-04-09T03:05:20.315Z,2.30
2023-04-09T03:07:52.245Z,2.10
2023-04-09T03:10:23.817Z,2.30
2023-04-09T03:12:54.996Z,2.30
2023-04-09T03:15:26.521Z,2.10
2023-04-09T03:17:58.041Z,2.20
2023-04-09T03:20:29.044Z,2.20
2023-04-09T03:23:00.175Z,2.20
2023-04-09T03:25:38.210Z,2.60
2023-04-09T03:28:16.134Z,2.20
2023-04-09T03:30:50.561Z,2.30
2023-04-09T03:33:23.338Z,2.30
2023-04-09T03:35:57.165Z,2.20
2023-04-09T03:38:41.253Z,2.50
2023-04-09T03:41:17.294Z,2.20
2023-04-09T03:43:48.657Z,2.10
2023-04-09T03:46:20.912Z,2.10
2023-04-09T03:48:53.026Z,2.30
2023-04-09T03:51:24.874Z,2.40
2023-04-09T03:53:59.905Z,2.50
2023-04-09T03:56:31.561Z,2.40
2023-04-09T03:59:02.577Z,2.20
2023-04-09T04:01:40.716Z,2.00
2023-04-09T04:04:13.710Z,2.30
2023-04-09T04:06:51.722Z,2.10
2023-04-09T04:09:32.352Z,2.30
2023-04-09T04:12:10.901Z,2.20
2023-04-09T04:15:02.414Z,2.20
2023-04-09T04:17:48.280Z,2.30
2023-04-09T04:20:40.406Z,2.40
2023-04-09T04:23:15.017Z,2.60
2023-04-09T04:25:54.053Z,2.30
2023-04-09T04:28:31.549Z,2.20
2023-04-09T04:31:03.609Z,2.50
2023-04-09T04:33:35.611Z,2.30
2023-04-09T04:36:09.741Z,2.60
2023-04-09T04:38:44.521Z,2.10
2023-04-09T04:41:21.082Z,2.30
2023-04-09T04:43:58.608Z,2.30
2023-04-09T04:46:30.423Z,2.50
2023-04-09T04:49:01.747Z,2.30
2023-04-09T04:51:34.829Z,2.40
2023-04-09T04:54:09.596Z,2.30
2023-04-09T04:56:41.255Z,2.50
2023-04-09T04:59:20.282Z,2.70
2023-04-09T05:02:00.636Z,2.60
2023-04-09T05:04:32.815Z,2.10
2023-04-09T05:07:04.439Z,2.20
2023-04-09T05:09:35.985Z,2.50
2023-04-09T05:12:11.256Z,2.10
2023-04-09T05:14:42.780Z,2.30
2023-04-09T05:17:13.944Z,2.70
2023-04-09T05:19:51.944Z,2.30
2023-04-09T05:22:24.260Z,2.50
2023-04-09T05:24:55.456Z,2.30
2023-04-09T05:27:28.261Z,2.20
2023-04-09T05:30:04.627Z,2.20
2023-04-09T05:32:35.632Z,2.50
2023-04-09T05:35:09.569Z,2.50
2023-04-09T05:37:44.447Z,2.40
2023-04-09T05:40:16.749Z,2.20
2023-04-09T05:42:48.296Z,2.40
2023-04-09T05:45:28.698Z,2.70
2023-04-09T05:48:00.258Z,2.40
2023-04-09T05:50:34.365Z,2.40
2023-04-09T05:53:09.998Z,2.50
2023-04-09T05:55:43.737Z,2.90
2023-04-09T05:58:15.418Z,2.80
2023-04-09T06:00:47.077Z,2.60
2023-04-09T06:03:18.612Z,2.60
2023-04-09T06:05:50.589Z,3.20
2023-04-09T06:08:21.504Z,3.30
2023-04-09T06:10:53.082Z,3.50
2023-04-09T06:13:24.560Z,3.60
2023-04-09T06:15:56.354Z,3.90
2023-04-09T06:18:27.973Z,4.30
2023-04-09T06:21:06.082Z,4.70
2023-04-09T06:23:39.662Z,4.30
2023-04-09T06:26:11.030Z,3.90
2023-04-09T06:28:42.744Z,3.90
2023-04-09T06:31:13.774Z,3.80
2023-04-09T06:33:45.397Z,4.30
2023-04-09T06:36:17.400Z,4.00
2023-04-09T06:38:48.507Z,3.90
2023-04-09T06:41:21.363Z,4.60
2023-04-09T06:43:53.178Z,4.70
2023-04-09T06:46:24.935Z,5.00
2023-04-09T06:48:56.735Z,4.80
2023-04-09T06:51:28.574Z,4.00
2023-04-09T06:53:59.979Z,4.00
2023-04-09T06:56:31.502Z,4.50
2023-04-09T06:59:02.736Z,3.90
2023-04-09T07:01:35.795Z,3.90
2023-04-09T07:04:07.401Z,4.10
2023-04-09T07:06:40.477Z,3.70
2023-04-09T07:09:12.526Z,3.90
2023-04-09T07:11:44.193Z,3.60
2023-04-09T07:14:15.690Z,2.90
2023-04-09T07:16:47.354Z,3.40
2023-04-09T07:19:18.779Z,4.10
2023-04-09T07:21:50.066Z,3.50
2023-04-09T07:24:21.204Z,4.20
2023-04-09T07:26:52.694Z,3.70
2023-04-09T07:29:23.992Z,3.60
2023-04-09T07:31:55.343Z,3.40
2023-04-09T07:34:27.561Z,3.10
2023-04-09T07:36:58.825Z,3.10
2023-04-09T07:39:30.186Z,4.60
2023-04-09T07:42:03.735Z,4.50
2023-04-09T07:44:38.006Z,4.20
2023-04-09T07:47:11.386Z,4.10
2023-04-09T07:49:43.581Z,3.60
2023-04-09T07:52:15.079Z,3.80
2023-04-09T07:54:46.434Z,3.50
2023-04-09T07:57:17.900Z,3.40
2023-04-09T07:59:49.230Z,4.20
2023-04-09T08:02:20.612Z,4.10
2023-04-09T08:04:51.994Z,4.70
2023-04-09T08:07:23.616Z,4.40
2023-04-09T08:09:54.915Z,5.50
2023-04-09T08:12:26.323Z,5.60
2023-04-09T08:14:57.932Z,5.40
2023-04-09T08:17:29.352Z,5.40
2023-04-09T08:20:00.630Z,5.70
2023-04-09T08:22:32.211Z,5.70
2023-04-09T08:25:03.629Z,5.70
2023-04-09T08:27:36.157Z,5.80
2023-04-09T08:30:09.561Z,5.70
2023-04-09T08:32:40.827Z,5.80
2023-04-09T08:35:13.375Z,5.50
2023-04-09T08:37:45.355Z,6.60
2023-04-09T08:40:17.351Z,6.60
2023-04-09T08:42:54.725Z,7.20
2023-04-09T08:45:26.078Z,7.20
2023-04-09T08:47:59.799Z,8.40
2023-04-09T08:50:31.733Z,7.50
2023-04-09T08:53:06.462Z,8.30
2023-04-09T08:55:38.366Z,8.70
2023-04-09T08:58:10.698Z,8.40
2023-04-09T09:00:44.744Z,8.50
2023-04-09T09:03:16.435Z,8.60
2023-04-09T09:05:48.614Z,8.70
2023-04-09T09:08:27.848Z,9.30
2023-04-09T09:10:59.378Z,9.40
2023-04-09T09:13:31.178Z,9.40
2023-04-09T09:16:17.033Z,10.00
2023-04-09T09:18:48.318Z,9.80
2023-04-09T09:21:20.698Z,10.30
2023-04-09T09:23:52.233Z,9.10
2023-04-09T09:26:26.093Z,9.10
2023-04-09T09:28:59.108Z,10.40
2023-04-09T09:31:30.587Z,8.60
2023-04-09T09:34:11.557Z,8.50
2023-04-09T09:36:42.961Z,9.30
2023-04-09T09:39:16.068Z,9.80
2023-04-09T09:41:48.902Z,9.40
2023-04-09T09:47:21.631Z,10.70
2023-04-09T09:49:54.777Z,9.50
2023-04-09T09:52:28.210Z,9.90
2023-04-09T09:55:05.804Z,8.60
2023-04-09T09:57:40.868Z,5.60
2023-04-09T10:00:18.642Z,7.20
2023-04-09T10:02:58.001Z,6.60
2023-04-09T10:05:30.138Z,6.50
2023-04-09T10:08:04.907Z,5.10
2023-04-09T10:10:37.662Z,6.50
2023-04-09T10:13:11.450Z,6.20
2023-04-09T10:15:44.894Z,5.00
2023-04-09T10:18:18.005Z,6.50
2023-04-09T10:20:58.616Z,6.20
2023-04-09T10:23:38.139Z,6.50
2023-04-09T10:26:10.571Z,4.80
2023-04-09T10:28:43.060Z,6.00
2023-04-09T10:31:15.560Z,5.10
2023-04-09T10:33:47.328Z,5.40
2023-04-09T10:36:22.757Z,4.80
2023-04-09T10:38:54.872Z,5.10
2023-04-09T10:41:31.612Z,6.40
2023-04-09T10:44:07.340Z,6.00
2023-04-09T10:46:39.038Z,6.40
2023-04-09T10:49:17.329Z,7.00
2023-04-09T10:51:54.838Z,8.00
2023-04-09T10:54:46.870Z,9.00
2023-04-09T10:57:20.964Z,9.80
2023-04-09T10:59:54.063Z,8.10
2023-04-09T11:03:02.021Z,8.50
2023-04-09T11:05:38.506Z,7.40
2023-04-09T11:08:11.884Z,5.50
2023-04-09T11:10:45.304Z,5.60
2023-04-09T11:13:17.842Z,5.60
2023-04-09T11:15:49.502Z,6.00
2023-04-09T11:18:29.591Z,6.10
2023-04-09T11:21:05.349Z,5.50
2023-04-09T11:23:37.948Z,4.00
2023-04-09T11:26:12.332Z,5.60
2023-04-09T11:28:46.230Z,6.30
2023-04-09T11:31:19.407Z,6.00
2023-04-09T11:33:52.721Z,5.20
2023-04-09T11:36:24.744Z,5.70
2023-04-09T11:38:56.934Z,5.70
2023-04-09T11:41:40.708Z,6.30
2023-04-09T11:44:12.406Z,5.80
2023-04-09T11:46:49.270Z,6.50
2023-04-09T11:49:21.376Z,5.90
2023-04-09T11:51:53.792Z,5.80
2023-04-09T11:54:26.050Z,6.10
2023-04-09T11:56:57.850Z,5.70
2023-04-09T11:59:30.137Z,6.80
2023-04-09T12:02:03.641Z,6.50
2023-04-09T12:04:35.612Z,6.10
2023-04-09T12:07:11.627Z,6.40
2023-04-09T12:09:51.125Z,5.50
2023-04-09T12:12:26.421Z,5.60
2023-04-09T12:14:59.455Z,6.10
2023-04-09T12:17:35.534Z,5.50
2023-04-09T12:20:10.149Z,5.50
2023-04-09T12:22:41.598Z,5.30
2023-04-09T12:25:13.833Z,5.40
2023-04-09T12:27:45.977Z,5.40
2023-04-09T12:30:18.264Z,5.50
2023-04-09T12:32:49.561Z,5.90
2023-04-09T12:35:22.445Z,5.00
2023-04-09T12:37:54.755Z,5.00
2023-04-09T12:40:26.597Z,5.50
2023-04-09T12:42:57.972Z,5.50
2023-04-09T12:45:31.000Z,4.90
2023-04-09T12:48:03.520Z,4.90
2023-04-09T12:50:36.093Z,4.60
2023-04-09T12:53:09.070Z,3.20
2023-04-09T12:55:42.638Z,4.10
2023-04-09T12:58:14.922Z,3.80
2023-04-09T13:00:47.431Z,4.00
2023-04-09T13:03:19.188Z,3.90
2023-04-09T13:05:51.764Z,3.80
2023-04-09T13:08:23.645Z,3.70
2023-04-09T13:10:55.706Z,3.90
2023-04-09T13:13:31.810Z,3.90
2023-04-09T13:16:04.273Z,3.80
2023-04-09T13:18:35.795Z,4.20
2023-04-09T13:21:08.232Z,4.00
2023-04-09T13:23:39.617Z,3.40
2023-04-09T13:26:11.234Z,3.30
2023-04-09T13:28:43.187Z,3.10
2023-04-09T13:31:14.811Z,3.00
2023-04-09T13:33:46.653Z,3.60
2023-04-09T13:36:18.280Z,3.50
2023-04-09T13:38:50.590Z,3.30
2023-04-09T13:41:28.673Z,3.30
2023-04-09T13:44:02.343Z,3.40
2023-04-09T13:46:34.669Z,3.30
2023-04-09T13:49:06.618Z,3.00
2023-04-09T13:51:38.521Z,3.90
2023-04-09T13:54:11.545Z,3.60
2023-04-09T13:56:43.123Z,4.10
2023-04-09T13:59:15.622Z,3.80
2023-04-09T14:01:47.239Z,4.00
2023-04-09T14:04:19.844Z,3.90
2023-04-09T14:06:52.272Z,3.80
2023-04-09T14:09:24.761Z,3.90
2023-04-09T14:11:56.854Z,3.90
2023-04-09T14:14:28.987Z,4.10
2023-04-09T14:17:01.510Z,3.70
2023-04-09T14:19:33.987Z,4.30
2023-04-09T14:22:07.298Z,4.20
2023-04-09T14:24:41.080Z,3.80
2023-04-09T14:27:14.867Z,4.00
2023-04-09T14:29:46.394Z,5.40
2023-04-09T14:32:17.757Z,4.90
2023-04-09T14:34:53.307Z,5.90
2023-04-09T14:37:24.856Z,5.80
2023-04-09T14:39:56.332Z,6.30
2023-04-09T14:42:28.626Z,6.20
2023-04-09T14:45:00.623Z,6.50
2023-04-09T14:47:32.076Z,6.30
2023-04-09T14:50:03.969Z,6.00
2023-04-09T14:52:35.513Z,5.90
2023-04-09T14:55:12.666Z,5.60
2023-04-09T14:57:44.202Z,6.30
2023-04-09T15:00:16.942Z,6.50
2023-04-09T15:02:49.068Z,6.30
2023-04-09T15:05:20.882Z,7.20
2023-04-09T15:07:52.222Z,6.50
2023-04-09T15:10:24.042Z,6.90
2023-04-09T15:12:55.255Z,6.30
2023-04-09T15:15:27.379Z,6.70
2023-04-09T15:18:05.631Z,6.40
2023-04-09T15:20:40.954Z,5.90
2023-04-09T15:23:15.989Z,5.00
2023-04-09T15:25:47.682Z,5.30
2023-04-09T15:28:19.211Z,4.50
2023-04-09T15:30:50.843Z,5.10
2023-04-09T15:33:22.507Z,4.90
2023-04-09T15:35:55.959Z,4.60
2023-04-09T15:38:27.736Z,5.30
2023-04-09T15:41:00.120Z,5.00
2023-04-09T15:43:31.967Z,4.90
2023-04-09T15:46:11.025Z,4.20
2023-04-09T15:48:44.803Z,3.60
2023-04-09T15:51:16.887Z,3.40
2023-04-09T15:53:48.507Z,4.00
2023-04-09T15:56:20.459Z,4.70
2023-04-09T15:58:52.176Z,4.70
2023-04-09T16:01:24.121Z,3.90
2023-04-09T16:03:55.354Z,3.80
2023-04-09T16:06:27.615Z,3.40
2023-04-09T16:08:59.202Z,3.30
2023-04-09T16:11:31.281Z,3.40
2023-04-09T16:14:02.439Z,3.00
2023-04-09T16:16:33.899Z,3.10
2023-04-09T16:19:05.589Z,2.90
2023-04-09T16:21:37.038Z,3.20
2023-04-09T16:24:08.733Z,3.00
2023-04-09T16:26:39.984Z,3.00
2023-04-09T16:29:11.675Z,3.10
2023-04-09T16:31:43.178Z,2.80
2023-04-09T16:34:14.600Z,3.00
2023-04-09T16:36:46.730Z,3.10
2023-04-09T16:39:18.291Z,2.80
2023-04-09T16:41:50.511Z,3.10
2023-04-09T16:44:22.100Z,3.30
2023-04-09T16:46:53.903Z,3.60
2023-04-09T16:49:25.638Z,2.60
2023-04-09T16:51:57.384Z,2.90
2023-04-09T16:54:29.405Z,2.80
2023-04-09T16:57:02.015Z,2.50
2023-04-09T16:59:34.255Z,2.50
2023-04-09T17:02:06.274Z,2.20
2023-04-09T17:04:38.329Z,2.30
2023-04-09T17:07:10.339Z,2.60
2023-04-09T17:09:41.762Z,2.50
2023-04-09T17:12:14.711Z,2.30
2023-04-09T17:14:46.263Z,2.20
2023-04-09T17:17:17.926Z,2.50
2023-04-09T17:19:49.704Z,2.60
2023-04-09T17:22:21.329Z,2.50
2023-04-09T17:24:53.069Z,2.30
2023-04-09T17:27:25.054Z,2.30
2023-04-09T17:29:56.488Z,2.50
2023-04-09T17:32:28.332Z,2.50
2023-04-09T17:35:00.465Z,2.60
2023-04-09T17:37:32.255Z,2.20
2023-04-09T17:40:04.482Z,2.70
2023-04-09T17:42:35.939Z,2.70
2023-04-09T17:45:09.482Z,2.70
2023-04-09T17:47:42.141Z,2.50
2023-04-09T17:50:14.924Z,2.50
2023-04-09T17:52:47.057Z,2.40
2023-04-09T17:55:19.492Z,3.10
2023-04-09T17:57:51.179Z,3.10
2023-04-09T18:00:22.861Z,3.30
2023-04-09T18:02:56.372Z,2.80
2023-04-09T18:05:28.153Z,3.10
2023-04-09T18:08:02.321Z,3.10
2023-04-09T18:10:34.367Z,3.50
2023-04-09T18:13:05.654Z,3.20
2023-04-09T18:15:37.364Z,3.50
2023-04-09T18:18:08.915Z,3.40
2023-04-09T18:20:40.911Z,3.30
2023-04-09T18:23:12.349Z,3.00
2023-04-09T18:25:43.875Z,3.00
2023-04-09T18:28:15.428Z,3.10
2023-04-09T18:30:47.998Z,3.50
2023-04-09T18:33:19.953Z,3.30
2023-04-09T18:35:51.537Z,3.10
2023-04-09T18:38:23.019Z,3.10
2023-04-09T18:40:54.798Z,2.90
2023-04-09T18:43:26.355Z,3.40
2023-04-09T18:45:58.272Z,3.50
2023-04-09T18:48:30.029Z,3.00
2023-04-09T18:51:03.174Z,3.30
2023-04-09T18:53:34.874Z,3.40
2023-04-09T18:56:07.420Z,3.40
2023-04-09T18:58:39.660Z,3.30
2023-04-09T19:01:14.546Z,3.60
2023-04-09T19:03:46.603Z,3.60
2023-04-09T19:06:19.751Z,3.70
2023-04-09T19:08:57.213Z,3.50
2023-04-09T19:11:28.661Z,3.40
2023-04-09T19:14:00.672Z,3.50
2023-04-09T19:16:32.007Z,3.70
2023-04-09T19:19:03.784Z,3.40
2023-04-09T19:21:36.272Z,3.50
2023-04-09T19:24:08.390Z,3.80
2023-04-09T19:26:40.546Z,3.80
2023-04-09T19:29:12.034Z,3.50
2023-04-09T19:31:43.834Z,3.50
2023-04-09T19:34:16.472Z,3.40
2023-04-09T19:36:48.113Z,3.70
2023-04-09T19:39:20.415Z,3.90
2023-04-09T19:41:51.869Z,3.30
2023-04-09T19:44:24.568Z,3.40
2023-04-09T19:46:56.717Z,3.80
2023-04-09T19:49:28.736Z,3.50
2023-04-09T19:52:01.258Z,3.40
2023-04-09T19:54:32.648Z,3.30
2023-04-09T19:57:05.068Z,4.00
2023-04-09T19:59:40.024Z,4.00
2023-04-09T20:02:11.412Z,4.00
2023-04-09T20:04:42.966Z,4.20
2023-04-09T20:07:15.888Z,4.50
2023-04-09T20:09:47.362Z,4.30
2023-04-09T20:12:21.969Z,4.00
2023-04-09T20:14:53.614Z,3.70
2023-04-09T20:17:25.295Z,3.70
2023-04-09T20:19:57.802Z,3.90
2023-04-09T20:22:29.797Z,3.60
2023-04-09T20:25:01.812Z,3.60
2023-04-09T20:27:34.690Z,3.50
2023-04-09T20:30:07.148Z,4.00
2023-04-09T20:32:40.902Z,4.00
2023-04-09T20:35:14.672Z,3.60
2023-04-09T20:37:48.504Z,3.50
2023-04-09T20:40:20.285Z,3.80
2023-04-09T20:42:52.737Z,3.60
2023-04-09T20:45:24.311Z,3.70
2023-04-09T20:47:57.020Z,3.90
2023-04-09T20:50:30.042Z,3.70
2023-04-09T20:53:02.576Z,3.90
2023-04-09T20:55:34.172Z,3.50
2023-04-09T20:58:07.080Z,4.00
2023-04-09T21:00:39.013Z,4.30
2023-04-09T21:03:11.033Z,4.30
2023-04-09T21:05:43.414Z,4.10
2023-04-09T21:08:15.663Z,4.10
2023-04-09T21:10:47.556Z,4.00
2023-04-09T21:13:19.785Z,3.60
2023-04-09T21:15:53.098Z,3.80
2023-04-09T21:18:25.619Z,4.20
2023-04-09T21:20:57.555Z,4.10
2023-04-09T21:23:29.078Z,4.10
2023-04-09T21:26:01.224Z,4.30
2023-04-09T21:28:33.220Z,4.00
2023-04-09T21:31:04.677Z,4.60
2023-04-09T21:33:39.263Z,5.10
2023-04-09T21:36:12.287Z,4.70
2023-04-09T21:38:45.388Z,4.90
2023-04-09T21:41:16.944Z,5.10
2023-04-09T21:43:48.492Z,4.60
2023-04-09T21:46:19.982Z,4.50
2023-04-09T21:48:52.218Z,4.30
2023-04-09T21:51:24.279Z,4.60
2023-04-09T21:54:05.665Z,4.10
2023-04-09T21:56:37.614Z,4.20
2023-04-09T21:59:08.928Z,3.90
2023-04-09T22:01:40.288Z,4.20
2023-04-09T22:04:12.468Z,4.00
2023-04-09T22:06:46.644Z,3.90
2023-04-09T22:09:19.080Z,3.90
2023-04-09T22:11:50.934Z,3.70
2023-04-09T22:14:23.533Z,4.00
2023-04-09T22:16:58.189Z,4.10
2023-04-09T22:19:32.249Z,4.10
2023-04-09T22:22:05.040Z,4.10
2023-04-09T22:24:39.257Z,4.40
2023-04-09T22:27:11.649Z,4.00
2023-04-09T22:29:43.350Z,4.20
2023-04-09T22:32:16.606Z,4.00
2023-04-09T22:34:48.550Z,4.40
2023-04-09T22:37:21.107Z,4.00
2023-04-09T22:39:52.734Z,4.50
2023-04-09T22:42:25.551Z,4.30
2023-04-09T22:44:56.854Z,4.30
2023-04-09T22:47:28.167Z,4.20
2023-04-09T22:49:59.538Z,4.20
2023-04-09T22:52:30.955Z,4.60
2023-04-09T22:55:02.654Z,4.60
2023-04-09T22:57:34.107Z,4.20
2023-04-09T23:00:07.154Z,4.20
2023-04-09T23:02:39.026Z,4.10
2023-04-09T23:05:12.295Z,4.40
2023-04-09T23:07:45.402Z,4.20
2023-04-09T23:10:17.723Z,4.00
2023-04-09T23:12:49.666Z,4.10
2023-04-09T23:15:21.892Z,4.20
2023-04-09T23:17:53.315Z,3.90
2023-04-09T23:20:25.053Z,4.10
2023-04-09T23:22:56.793Z,4.40
2023-04-09T23:25:28.115Z,4.70
2023-04-09T23:27:59.571Z,5.20
2023-04-09T23:30:32.227Z,4.70
2023-04-09T23:33:04.345Z,4.80
2023-04-09T23:35:35.772Z,4.50
2023-04-09T23:38:06.855Z,4.50
2023-04-09T23:40:38.192Z,4.80
2023-04-09T23:43:09.970Z,4.20
2023-04-09T23:45:41.601Z,4.20
2023-04-09T23:48:14.130Z,4.30
2023-04-09T23:50:45.458Z,3.90
2023-04-09T23:53:17.072Z,3.90
2023-04-09T23:55:50.262Z,3.80
2023-04-09T23:58:22.759Z,4.10
